Time;durP1;ratioP1;P1;durP2;ratioP2;P2;SDS_P1;SDS_P2;PMS_P1;PMS_P2;Temp;Humidity;BMP_temperature;BMP_pressure;BME280_temperature;BME280_humidity;BME280_pressure;Samples;Min_cycle;Max_cycle;Signal;HPM_P1;HPM_P2
2024/03/23 00:00:41;;;;;;;5.43;4.93;;;21.80;77.50;;;;;;5005299;28;20485;-72
2024/03/23 00:03:10;;;;;;;5.20;4.70;;;21.80;77.60;;;;;;5006378;28;20463;-69
2024/03/23 00:05:40;;;;;;;5.40;4.77;;;21.80;77.70;;;;;;5001368;28;20989;-69
2024/03/23 00:08:10;;;;;;;4.73;4.33;;;21.80;77.70;;;;;;4996447;28;20458;-71
2024/03/23 00:10:40;;;;;;;5.10;4.63;;;21.70;77.70;;;;;;5003185;28;20465;-67
2024/03/23 00:13:09;;;;;;;4.30;3.90;;;21.70;77.70;;;;;;4989587;28;20466;-70
2024/03/23 00:15:39;;;;;;;5.45;4.95;;;21.70;77.80;;;;;;5001542;28;20652;-71
2024/03/23 00:18:09;;;;;;;5.70;4.80;;;21.70;77.90;;;;;;5005660;28;20196;-70
2024/03/23 00:20:39;;;;;;;5.35;4.90;;;21.60;77.90;;;;;;5007980;28;20462;-71
2024/03/23 00:23:09;;;;;;;4.67;4.27;;;21.60;77.90;;;;;;5008406;28;20215;-70
2024/03/23 00:25:39;;;;;;;4.63;4.23;;;21.60;78.10;;;;;;5003362;28;20577;-71
2024/03/23 00:28:10;;;;;;;3.90;3.50;;;21.60;78.20;;;;;;5003856;28;20463;-70
2024/03/23 00:30:40;;;;;;;4.70;4.20;;;21.50;78.20;;;;;;5004233;28;20454;-69
2024/03/23 00:33:10;;;;;;;4.73;4.30;;;21.50;78.20;;;;;;5005189;28;20525;-68
2024/03/23 00:35:40;;;;;;;5.43;4.60;;;21.50;78.30;;;;;;5006582;28;20554;-69
2024/03/23 00:38:09;;;;;;;4.43;4.13;;;21.50;78.50;;;;;;5002460;28;20200;-69
2024/03/23 00:40:39;;;;;;;4.80;4.40;;;21.40;78.40;;;;;;4999762;28;20210;-68
2024/03/23 00:43:09;;;;;;;4.20;3.90;;;21.40;78.50;;;;;;5005240;28;20233;-69
2024/03/23 00:45:39;;;;;;;4.20;3.80;;;21.40;78.50;;;;;;4996147;28;20238;-70
2024/03/23 00:48:08;;;;;;;4.20;3.87;;;21.40;78.60;;;;;;5000250;28;20545;-68
2024/03/23 00:50:39;;;;;;;4.10;3.73;;;21.30;78.60;;;;;;5001708;28;20449;-70
2024/03/23 00:53:08;;;;;;;3.97;3.67;;;21.30;78.70;;;;;;4993938;28;20506;-72
2024/03/23 00:55:36;;;;;;;5.90;4.80;;;21.30;78.90;;;;;;5003337;28;20287;-70
2024/03/23 00:58:03;;;;;;;4.32;3.92;;;21.30;79.10;;;;;;5003009;28;20451;-68
2024/03/23 01:00:29;;;;;;;4.95;4.50;;;21.20;79.00;;;;;;5003941;28;20199;-69
2024/03/23 01:02:55;;;;;;;4.47;4.07;;;21.20;79.10;;;;;;4998800;28;20239;-72
2024/03/23 01:05:22;;;;;;;5.73;5.17;;;21.20;79.30;;;;;;4993928;28;20231;-71
2024/03/23 01:07:48;;;;;;;6.00;4.13;;;21.20;79.30;;;;;;4998841;28;20215;-67
2024/03/23 01:10:14;;;;;;;4.97;4.23;;;21.20;79.50;;;;;;5003277;28;20445;-69
2024/03/23 01:12:41;;;;;;;5.32;4.32;;;21.10;79.50;;;;;;4999253;28;20655;-70
2024/03/23 01:15:09;;;;;;;4.85;4.35;;;21.10;79.60;;;;;;5000239;28;20934;-69
2024/03/23 01:17:35;;;;;;;4.40;4.00;;;21.10;79.80;;;;;;5004524;28;20211;-71
2024/03/23 01:20:01;;;;;;;4.20;3.57;;;21.00;79.80;;;;;;5003628;28;21970;-67
2024/03/23 01:22:27;;;;;;;4.07;3.73;;;21.00;79.90;;;;;;5011173;28;20208;-70
2024/03/23 01:24:54;;;;;;;4.27;3.87;;;21.00;80.10;;;;;;5006319;28;20442;-70
2024/03/23 01:27:19;;;;;;;4.35;3.95;;;20.90;80.00;;;;;;5004421;28;20204;-72
2024/03/23 01:29:47;;;;;;;4.20;3.90;;;20.90;80.10;;;;;;5003312;28;20208;-71
2024/03/23 01:32:13;;;;;;;3.90;3.60;;;20.90;80.20;;;;;;5003427;28;20231;-69
2024/03/23 01:34:40;;;;;;;4.43;4.03;;;20.90;80.40;;;;;;5008613;28;20358;-71
2024/03/23 01:37:05;;;;;;;4.05;3.75;;;20.90;80.40;;;;;;5000646;28;20204;-73
2024/03/23 01:39:32;;;;;;;3.80;3.43;;;20.90;80.50;;;;;;5003738;28;20734;-67
2024/03/23 01:41:58;;;;;;;4.30;3.80;;;20.80;80.60;;;;;;5002578;28;20207;-71
2024/03/23 01:44:25;;;;;;;4.87;4.40;;;20.80;80.60;;;;;;5005434;28;20195;-71
2024/03/23 01:46:52;;;;;;;4.72;4.32;;;20.80;80.70;;;;;;5002414;28;20191;-70
2024/03/23 01:49:19;;;;;;;5.00;4.30;;;20.80;80.90;;;;;;4998982;28;20203;-67
2024/03/23 01:51:45;;;;;;;5.50;4.47;;;20.80;81.00;;;;;;4998955;28;20214;-71
2024/03/23 01:54:12;;;;;;;4.38;4.05;;;20.70;81.00;;;;;;5005072;28;20401;-70
2024/03/23 01:56:38;;;;;;;4.50;3.83;;;20.70;81.10;;;;;;5001701;28;20215;-69
2024/03/23 01:59:05;;;;;;;4.10;3.80;;;20.70;81.40;;;;;;5003051;28;20207;-70
2024/03/23 02:01:31;;;;;;;3.88;3.47;;;20.70;81.40;;;;;;5003262;28;20203;-73
2024/03/23 02:03:59;;;;;;;4.00;3.70;;;20.60;81.40;;;;;;5000244;28;20206;-67
2024/03/23 02:06:25;;;;;;;5.13;4.63;;;20.60;81.60;;;;;;5003443;28;20204;-70
2024/03/23 02:08:52;;;;;;;5.15;3.72;;;20.60;81.50;;;;;;5000737;28;20722;-68
2024/03/23 02:11:18;;;;;;;4.60;4.20;;;20.60;81.70;;;;;;5003125;28;20203;-71
2024/03/23 02:13:44;;;;;;;4.27;3.73;;;20.60;81.80;;;;;;5001334;28;20572;-72
2024/03/23 02:16:10;;;;;;;4.35;3.78;;;20.50;81.80;;;;;;5000598;28;20204;-68
2024/03/23 02:18:37;;;;;;;3.83;3.43;;;20.50;81.90;;;;;;5000708;28;20207;-68
2024/03/23 02:21:04;;;;;;;3.95;3.65;;;20.50;81.90;;;;;;4999444;28;20203;-68
2024/03/23 02:23:33;;;;;;;4.18;3.80;;;20.50;82.10;;;;;;5001273;28;20782;-71
2024/03/23 02:25:59;;;;;;;3.75;3.45;;;20.50;82.10;;;;;;5000897;28;20207;-71
2024/03/23 02:28:25;;;;;;;4.30;3.30;;;20.50;82.20;;;;;;5002990;28;20207;-67
2024/03/23 02:30:51;;;;;;;4.00;3.70;;;20.50;82.30;;;;;;5003140;28;20666;-68
2024/03/23 02:33:18;;;;;;;4.20;3.50;;;20.40;82.30;;;;;;5003524;28;20223;-69
2024/03/23 02:35:44;;;;;;;3.55;3.30;;;20.40;82.40;;;;;;5006464;28;20287;-69
2024/03/23 02:38:11;;;;;;;4.60;4.20;;;20.40;83.30;;;;;;5003549;28;21395;-71
2024/03/23 02:40:38;;;;;;;3.65;3.35;;;20.40;83.40;;;;;;5003911;28;20208;-68
2024/03/23 02:43:05;;;;;;;4.60;4.20;;;20.40;82.80;;;;;;5008748;28;20326;-70
2024/03/23 02:45:31;;;;;;;4.07;3.78;;;20.40;82.80;;;;;;5005004;28;20690;-71
2024/03/23 02:47:58;;;;;;;3.27;2.97;;;20.30;82.90;;;;;;5005729;28;20196;-68
2024/03/23 02:50:23;;;;;;;4.35;4.05;;;20.30;83.00;;;;;;5003908;28;20478;-74
2024/03/23 02:52:50;;;;;;;3.57;3.27;;;20.30;83.10;;;;;;5006459;28;20599;-71
2024/03/23 02:55:16;;;;;;;4.10;3.80;;;20.30;83.20;;;;;;5007315;28;20896;-72
2024/03/23 02:57:44;;;;;;;4.67;4.17;;;20.20;83.20;;;;;;5004041;28;20245;-69
2024/03/23 03:00:11;;;;;;;3.90;3.60;;;20.20;83.30;;;;;;5004998;28;20243;-67
2024/03/23 03:02:38;;;;;;;3.83;3.53;;;20.20;83.50;;;;;;5003619;28;20203;-71
2024/03/23 03:05:04;;;;;;;4.10;3.80;;;20.20;83.60;;;;;;5005327;28;20286;-69
2024/03/23 03:07:31;;;;;;;4.82;4.25;;;20.20;83.70;;;;;;5002242;28;20195;-71
2024/03/23 03:09:57;;;;;;;3.33;3.03;;;20.10;84.00;;;;;;5006262;28;20206;-68
2024/03/23 03:12:24;;;;;;;4.07;3.77;;;20.10;84.30;;;;;;5007897;28;20204;-71
2024/03/23 03:14:51;;;;;;;3.17;2.80;;;20.00;84.40;;;;;;5001172;28;20223;-68
2024/03/23 03:17:19;;;;;;;4.05;3.75;;;20.00;84.50;;;;;;4998499;28;21256;-71
2024/03/23 03:19:45;;;;;;;3.72;3.42;;;20.00;84.60;;;;;;4998828;28;20210;-72
2024/03/23 03:22:12;;;;;;;3.88;3.47;;;20.00;84.80;;;;;;5001409;28;20199;-73
2024/03/23 03:24:37;;;;;;;4.18;3.88;;;20.00;84.80;;;;;;5008842;28;20215;-68
2024/03/23 03:27:04;;;;;;;3.50;3.20;;;20.00;84.90;;;;;;5002995;28;20199;-68
2024/03/23 03:29:35;;;;;;;4.38;3.83;;;19.90;84.90;;;;;;5003956;28;20214;-71
2024/03/23 03:32:03;;;;;;;4.28;3.50;;;19.90;85.00;;;;;;5007180;28;20196;-72
2024/03/23 03:34:29;;;;;;;3.70;3.40;;;19.90;85.10;;;;;;5008452;28;20226;-71
2024/03/23 03:36:56;;;;;;;3.17;2.97;;;19.90;85.30;;;;;;5004790;28;22028;-72
2024/03/23 03:39:22;;;;;;;3.90;3.50;;;19.90;85.40;;;;;;5006619;28;20215;-67
2024/03/23 03:41:49;;;;;;;4.20;3.80;;;19.90;85.50;;;;;;5007421;28;20204;-68
2024/03/23 03:44:14;;;;;;;3.95;3.55;;;19.90;85.60;;;;;;5006900;28;20207;-75
2024/03/23 03:46:41;;;;;;;2.80;2.60;;;19.80;85.50;;;;;;5005607;28;20658;-72
2024/03/23 03:49:08;;;;;;;3.72;3.42;;;19.80;85.60;;;;;;5008535;28;20199;-71
2024/03/23 03:51:35;;;;;;;4.38;3.88;;;19.80;85.70;;;;;;5007324;28;20203;-68
2024/03/23 03:54:02;;;;;;;4.10;3.78;;;19.80;85.80;;;;;;5004861;28;20219;-71
2024/03/23 03:56:28;;;;;;;5.30;3.70;;;19.80;85.90;;;;;;5004343;28;20191;-71
2024/03/23 03:58:54;;;;;;;3.10;2.80;;;19.80;86.00;;;;;;5005083;28;20211;-72
2024/03/23 04:01:21;;;;;;;3.77;3.47;;;19.80;86.00;;;;;;5006638;28;20200;-69
2024/03/23 04:03:47;;;;;;;3.63;3.30;;;19.70;86.00;;;;;;5008911;28;20210;-67
2024/03/23 04:06:20;;;;;;;3.80;3.40;;;19.70;86.20;;;;;;5009170;28;21187;-71
2024/03/23 04:08:45;;;;;;;3.63;3.30;;;19.70;86.20;;;;;;5008859;28;20192;-70
2024/03/23 04:11:12;;;;;;;3.40;3.20;;;19.70;86.30;;;;;;5006733;28;20679;-67
2024/03/23 04:13:38;;;;;;;3.13;2.92;;;19.70;86.40;;;;;;5006344;28;20220;-70
2024/03/23 04:16:05;;;;;;;3.63;3.33;;;19.70;86.50;;;;;;5004435;28;20207;-68
2024/03/23 04:18:31;;;;;;;4.93;4.43;;;19.70;86.60;;;;;;5007086;28;20664;-70
2024/03/23 04:20:58;;;;;;;3.47;3.17;;;19.70;86.70;;;;;;5009150;28;20333;-72
2024/03/23 04:23:25;;;;;;;4.13;3.78;;;19.60;86.60;;;;;;5008798;28;20199;-68
2024/03/23 04:25:53;;;;;;;3.80;3.22;;;19.60;86.70;;;;;;5005286;28;20200;-73
2024/03/23 04:28:19;;;;;;;3.20;2.90;;;19.70;86.90;;;;;;5005649;28;20947;-69
2024/03/23 04:30:45;;;;;;;3.33;3.13;;;19.60;86.90;;;;;;5002827;28;20195;-70
2024/03/23 04:33:11;;;;;;;3.90;3.53;;;19.60;87.00;;;;;;5006103;28;20202;-65
2024/03/23 04:35:38;;;;;;;3.33;3.03;;;19.60;87.00;;;;;;5008589;28;21281;-68
2024/03/23 04:38:04;;;;;;;3.03;2.83;;;19.50;87.00;;;;;;5004071;28;20208;-70
2024/03/23 04:40:33;;;;;;;3.00;2.78;;;19.50;87.10;;;;;;5007511;28;20212;-70
2024/03/23 04:43:00;;;;;;;3.20;2.90;;;19.50;87.20;;;;;;5006268;28;20699;-68
2024/03/23 04:45:27;;;;;;;3.15;2.92;;;19.50;87.30;;;;;;5005155;28;20206;-71
2024/03/23 04:47:54;;;;;;;2.92;2.72;;;19.50;87.40;;;;;;4998880;28;20215;-71
2024/03/23 04:50:20;;;;;;;3.47;3.17;;;19.50;87.40;;;;;;5005489;28;20199;-69
2024/03/23 04:52:47;;;;;;;3.60;3.30;;;19.50;87.40;;;;;;5006171;28;20204;-71
2024/03/23 04:55:14;;;;;;;2.83;2.63;;;19.50;87.50;;;;;;5004883;28;20230;-72
2024/03/23 04:57:41;;;;;;;3.53;3.33;;;19.50;87.60;;;;;;5009452;28;20225;-67
2024/03/23 05:00:16;;;;;;;3.17;2.90;;;19.40;87.60;;;;;;5008177;28;20608;-71
2024/03/23 05:02:44;;;;;;;3.30;3.10;;;19.50;87.80;;;;;;5006462;28;20266;-67
2024/03/23 05:05:10;;;;;;;2.80;2.60;;;19.40;87.80;;;;;;5009678;28;20673;-72
2024/03/23 05:07:37;;;;;;;3.67;3.37;;;19.40;87.80;;;;;;5005417;28;20326;-67
2024/03/23 05:10:03;;;;;;;2.92;2.70;;;19.40;87.90;;;;;;5002915;28;20303;-69
2024/03/23 05:12:30;;;;;;;2.95;2.75;;;19.40;88.00;;;;;;5004003;28;21415;-69
2024/03/23 05:14:57;;;;;;;3.15;2.95;;;19.40;88.30;;;;;;5001581;28;20215;-68
2024/03/23 05:17:24;;;;;;;3.33;3.13;;;19.40;88.50;;;;;;4999190;28;20702;-68
2024/03/23 05:19:49;;;;;;;2.70;2.50;;;19.30;88.40;;;;;;4994209;28;20204;-66
2024/03/23 05:22:16;;;;;;;2.97;2.50;;;19.30;88.40;;;;;;5004394;28;21415;-69
2024/03/23 05:24:42;;;;;;;2.55;2.35;;;19.30;88.50;;;;;;5004442;28;20195;-68
2024/03/23 05:27:08;;;;;;;3.37;3.07;;;19.30;88.50;;;;;;5001511;28;20215;-67
2024/03/23 05:29:34;;;;;;;2.92;2.72;;;19.30;88.70;;;;;;5001297;28;20571;-67
2024/03/23 05:32:02;;;;;;;2.87;2.57;;;19.30;88.60;;;;;;5003371;28;20200;-67
2024/03/23 05:34:28;;;;;;;3.45;3.15;;;19.30;88.70;;;;;;5005152;28;20967;-68
2024/03/23 05:36:55;;;;;;;3.03;2.80;;;19.30;88.80;;;;;;4998420;28;20682;-72
2024/03/23 05:39:22;;;;;;;3.17;2.88;;;19.30;88.90;;;;;;5002024;28;20233;-72
2024/03/23 05:41:48;;;;;;;3.05;2.85;;;19.20;88.80;;;;;;5004378;28;20192;-69
2024/03/23 05:44:14;;;;;;;4.03;3.30;;;19.20;88.80;;;;;;5004443;28;20227;-68
2024/03/23 05:46:41;;;;;;;2.60;2.40;;;19.20;88.90;;;;;;4996714;28;20591;-72
2024/03/23 05:49:09;;;;;;;3.20;2.90;;;19.30;89.00;;;;;;5000756;28;20676;-70
2024/03/23 05:51:35;;;;;;;2.53;2.33;;;19.20;88.90;;;;;;4999404;28;20294;-72
2024/03/23 05:54:01;;;;;;;3.03;2.83;;;19.20;89.00;;;;;;5001509;28;20311;-68
2024/03/23 05:56:28;;;;;;;3.13;2.93;;;19.20;89.00;;;;;;5003069;28;21527;-70
2024/03/23 05:58:54;;;;;;;4.22;3.05;;;19.20;89.10;;;;;;5008647;28;20208;-68
2024/03/23 06:01:20;;;;;;;3.20;2.95;;;19.20;89.20;;;;;;5000238;28;20195;-69
2024/03/23 06:03:47;;;;;;;3.07;2.87;;;19.20;89.20;;;;;;4996625;28;20216;-71
2024/03/23 06:06:14;;;;;;;3.13;2.83;;;19.20;89.30;;;;;;5001754;28;20203;-67
2024/03/23 06:08:41;;;;;;;3.33;3.03;;;19.20;89.30;;;;;;5001915;28;20199;-69
2024/03/23 06:11:06;;;;;;;3.30;3.10;;;19.20;89.40;;;;;;5002109;28;20655;-69
2024/03/23 06:13:34;;;;;;;3.87;3.20;;;19.10;89.30;;;;;;5003656;28;20206;-69
2024/03/23 06:16:00;;;;;;;2.83;2.63;;;19.10;89.30;;;;;;5000968;28;21085;-73
2024/03/23 06:18:27;;;;;;;3.20;2.90;;;19.10;89.40;;;;;;5003598;28;20239;-71
2024/03/23 06:20:53;;;;;;;3.28;2.97;;;19.10;89.40;;;;;;5001581;28;20207;-72
2024/03/23 06:23:21;;;;;;;3.00;2.80;;;19.10;89.50;;;;;;5005071;28;21089;-73
2024/03/23 06:25:47;;;;;;;2.78;2.50;;;19.10;89.60;;;;;;5008319;28;20219;-69
2024/03/23 06:28:13;;;;;;;2.67;2.47;;;19.10;89.70;;;;;;5000399;28;20796;-68
2024/03/23 06:30:39;;;;;;;2.88;2.67;;;19.10;89.90;;;;;;5000728;28;20830;-69
2024/03/23 06:33:06;;;;;;;2.40;2.13;;;19.10;89.90;;;;;;5003350;28;20199;-69
2024/03/23 06:35:32;;;;;;;2.92;2.60;;;19.10;89.90;;;;;;5002329;28;20227;-69
2024/03/23 06:37:59;;;;;;;2.60;2.40;;;19.10;90.00;;;;;;5003440;28;20199;-74
2024/03/23 06:40:26;;;;;;;3.10;2.67;;;19.10;89.90;;;;;;5008707;28;20208;-72
2024/03/23 06:42:53;;;;;;;2.67;2.47;;;19.10;90.00;;;;;;5004572;28;20216;-70
2024/03/23 06:45:22;;;;;;;3.33;2.50;;;19.10;90.30;;;;;;4995854;28;20656;-74
2024/03/23 06:47:49;;;;;;;2.95;2.65;;;19.10;90.30;;;;;;4997913;28;20204;-71
2024/03/23 06:50:15;;;;;;;2.83;2.63;;;19.10;90.40;;;;;;5001401;28;20213;-69
2024/03/23 06:52:42;;;;;;;2.60;2.40;;;19.10;90.40;;;;;;5002006;28;20200;-71
2024/03/23 06:55:08;;;;;;;2.42;2.17;;;19.00;90.50;;;;;;5003023;28;20997;-74
2024/03/23 06:57:36;;;;;;;2.70;2.38;;;19.10;90.60;;;;;;5009548;28;20199;-72
2024/03/23 07:00:02;;;;;;;3.53;3.13;;;19.10;90.60;;;;;;5004035;28;20208;-72
2024/03/23 07:02:29;;;;;;;3.05;2.47;;;19.10;90.60;;;;;;5002671;28;20342;-70
2024/03/23 07:04:55;;;;;;;2.70;2.50;;;19.10;90.50;;;;;;5004246;28;20199;-73
2024/03/23 07:07:22;;;;;;;2.47;2.27;;;19.10;90.30;;;;;;4994972;28;20631;-71
2024/03/23 07:09:48;;;;;;;4.20;3.10;;;19.00;90.20;;;;;;4995479;28;20234;-75
2024/03/23 07:12:15;;;;;;;2.60;2.40;;;19.00;90.20;;;;;;5004621;28;20204;-71
2024/03/23 07:14:42;;;;;;;2.00;1.80;;;19.00;90.10;;;;;;5002780;28;20953;-72
2024/03/23 07:17:08;;;;;;;2.85;2.65;;;19.00;90.10;;;;;;5002584;28;21340;-70
2024/03/23 07:19:34;;;;;;;2.42;1.83;;;19.10;90.00;;;;;;5011403;28;20208;-72
2024/03/23 07:22:01;;;;;;;2.60;2.40;;;19.10;90.00;;;;;;5007474;28;21037;-70
2024/03/23 07:24:27;;;;;;;3.35;2.47;;;19.10;89.90;;;;;;5009051;28;20199;-70
2024/03/23 07:26:54;;;;;;;2.33;2.13;;;19.10;89.90;;;;;;5006720;28;20206;-73
2024/03/23 07:29:20;;;;;;;2.60;2.17;;;19.10;89.80;;;;;;5005496;28;20959;-71
2024/03/23 07:31:48;;;;;;;2.50;2.30;;;19.20;89.90;;;;;;5003946;28;20856;-69
2024/03/23 07:34:13;;;;;;;1.77;1.65;;;19.30;90.00;;;;;;5000234;28;20210;-71
2024/03/23 07:36:40;;;;;;;2.30;1.87;;;19.40;90.00;;;;;;5007212;28;20645;-70
2024/03/23 07:39:07;;;;;;;2.35;2.15;;;19.50;90.00;;;;;;5004327;28;20667;-73
2024/03/23 07:41:35;;;;;;;2.60;2.40;;;19.50;90.10;;;;;;5008014;28;20192;-72
2024/03/23 07:44:01;;;;;;;2.28;1.70;;;19.60;89.30;;;;;;5006565;28;20548;-72
2024/03/23 07:46:27;;;;;;;4.33;1.93;;;19.70;89.00;;;;;;5004837;28;20203;-70
2024/03/23 07:48:54;;;;;;;2.10;1.90;;;19.80;88.90;;;;;;5005633;28;20202;-74
2024/03/23 07:51:22;;;;;;;2.90;1.95;;;19.90;88.70;;;;;;5003639;28;20417;-73
2024/03/23 07:53:48;;;;;;;1.90;1.77;;;19.90;88.50;;;;;;5000910;28;20715;-75
2024/03/23 07:56:17;;;;;;;4.40;2.20;;;20.00;88.40;;;;;;5003712;28;20277;-74
2024/03/23 07:58:43;;;;;;;2.20;1.80;;;20.10;88.30;;;;;;5006758;28;20462;-73
2024/03/23 08:01:12;;;;;;;2.10;1.90;;;20.10;88.40;;;;;;5002042;28;20195;-71
2024/03/23 08:03:40;;;;;;;6.10;2.53;;;20.10;88.30;;;;;;5002823;28;20199;-72
2024/03/23 08:06:13;;;;;;;2.15;2.03;;;20.20;88.30;;;;;;5006838;28;20197;-74
2024/03/23 08:08:40;;;;;;;2.30;2.10;;;20.30;88.10;;;;;;4999710;28;20231;-70
2024/03/23 08:11:06;;;;;;;2.05;1.85;;;20.30;87.80;;;;;;5002160;28;20199;-71
2024/03/23 08:13:33;;;;;;;2.60;2.40;;;20.40;87.60;;;;;;5000422;28;20207;-72
2024/03/23 08:16:00;;;;;;;2.78;2.33;;;20.40;87.40;;;;;;5004643;28;20231;-74
2024/03/23 08:18:26;;;;;;;1.80;1.70;;;20.40;87.40;;;;;;5005252;28;20214;-74
2024/03/23 08:20:57;;;;;;;2.20;2.00;;;20.50;87.40;;;;;;4999640;28;20195;-73
2024/03/23 08:23:25;;;;;;;1.83;1.60;;;20.40;87.10;;;;;;5001200;28;20466;-67
2024/03/23 08:25:52;;;;;;;2.10;1.83;;;20.50;87.80;;;;;;5000052;28;20966;-70
2024/03/23 08:28:17;;;;;;;2.30;2.10;;;20.60;86.80;;;;;;5001933;28;20458;-69
2024/03/23 08:30:44;;;;;;;3.73;1.70;;;20.60;86.40;;;;;;5003667;28;20462;-68
2024/03/23 08:33:10;;;;;;;2.08;1.85;;;20.70;86.40;;;;;;5006116;28;20269;-72
2024/03/23 08:35:37;;;;;;;2.07;1.87;;;20.70;86.10;;;;;;5000507;28;20224;-73
2024/03/23 08:38:03;;;;;;;1.92;1.73;;;20.70;85.80;;;;;;5005338;28;20204;-73
2024/03/23 08:40:31;;;;;;;5.77;1.87;;;20.80;85.60;;;;;;5007233;28;20215;-73
2024/03/23 08:42:56;;;;;;;2.13;1.92;;;20.80;85.30;;;;;;5003655;28;20460;-71
2024/03/23 08:45:23;;;;;;;2.73;1.70;;;20.90;85.00;;;;;;5003611;28;20200;-73
2024/03/23 08:47:49;;;;;;;2.10;1.95;;;20.90;84.70;;;;;;4998362;28;20204;-74
2024/03/23 08:50:16;;;;;;;2.20;2.00;;;21.00;84.30;;;;;;5001227;28;20330;-70
2024/03/23 08:52:42;;;;;;;2.03;1.83;;;21.00;84.00;;;;;;5000864;28;20477;-70
2024/03/23 08:55:09;;;;;;;1.70;1.60;;;21.10;83.90;;;;;;5003076;28;20489;-68
2024/03/23 08:57:36;;;;;;;2.40;2.20;;;21.20;83.60;;;;;;5001685;28;21140;-67
2024/03/23 09:00:05;;;;;;;2.37;2.13;;;21.20;83.30;;;;;;5002497;28;21251;-73
2024/03/23 09:02:31;;;;;;;2.50;1.85;;;21.20;83.10;;;;;;4997958;28;20942;-71
2024/03/23 09:05:04;;;;;;;1.60;1.50;;;21.20;83.00;;;;;;4996928;28;20277;-71
2024/03/23 09:07:30;;;;;;;1.93;1.73;;;21.20;82.70;;;;;;4999202;28;20207;-71
2024/03/23 09:09:56;;;;;;;3.63;2.07;;;21.30;82.40;;;;;;5004656;28;20513;-69
2024/03/23 09:12:22;;;;;;;5.10;1.63;;;21.30;81.90;;;;;;5004354;28;20470;-69
2024/03/23 09:14:50;;;;;;;2.53;1.60;;;21.40;81.70;;;;;;5002697;28;21008;-71
2024/03/23 09:17:16;;;;;;;2.23;1.70;;;21.50;81.60;;;;;;4999482;28;20204;-72
2024/03/23 09:19:43;;;;;;;1.77;1.67;;;21.50;81.30;;;;;;4997671;28;20446;-72
2024/03/23 09:22:08;;;;;;;1.80;1.70;;;21.60;81.80;;;;;;4995710;28;20211;-71
2024/03/23 09:24:35;;;;;;;2.23;1.70;;;21.60;80.70;;;;;;5002680;28;20454;-72
2024/03/23 09:27:01;;;;;;;1.70;1.60;;;21.60;80.50;;;;;;5003939;28;20196;-68
2024/03/23 09:29:28;;;;;;;2.03;1.83;;;21.70;80.30;;;;;;4996523;28;20482;-68
2024/03/23 09:31:55;;;;;;;1.80;1.60;;;21.70;79.90;;;;;;4993390;28;20472;-68
2024/03/23 09:34:21;;;;;;;2.10;1.90;;;21.70;79.80;;;;;;5003067;28;20548;-74
2024/03/23 09:36:50;;;;;;;2.00;1.80;;;21.80;79.60;;;;;;5002688;28;20487;-72
2024/03/23 09:39:17;;;;;;;2.30;1.60;;;21.90;79.40;;;;;;4999030;28;20458;-71
2024/03/23 09:41:43;;;;;;;2.70;1.63;;;21.90;79.10;;;;;;5006444;28;20462;-72
2024/03/23 09:44:10;;;;;;;1.63;1.53;;;22.00;78.90;;;;;;5003003;28;20981;-71
2024/03/23 09:46:36;;;;;;;2.20;1.93;;;22.00;78.50;;;;;;5000464;28;20451;-69
2024/03/23 09:49:04;;;;;;;1.70;1.60;;;22.10;78.90;;;;;;4997202;28;20954;-70
2024/03/23 09:51:30;;;;;;;7.73;2.40;;;22.20;77.90;;;;;;5006136;28;21531;-70
2024/03/23 09:53:58;;;;;;;4.20;2.00;;;22.20;70.30;;;;;;5002259;28;20537;-69
2024/03/23 09:56:23;;;;;;;2.50;2.17;;;22.20;67.60;;;;;;5005406;28;20495;-73
2024/03/23 09:58:50;;;;;;;2.00;1.53;;;22.10;70.90;;;;;;5007121;28;20457;-70
2024/03/23 10:01:16;;;;;;;2.50;2.00;;;22.20;72.30;;;;;;5008175;28;20463;-72
2024/03/23 10:03:44;;;;;;;4.90;2.20;;;22.30;72.90;;;;;;4993195;28;20454;-73
2024/03/23 10:06:11;;;;;;;3.30;1.90;;;22.30;73.30;;;;;;4990266;28;20488;-73
2024/03/23 10:08:38;;;;;;;1.73;1.53;;;22.40;73.70;;;;;;4998597;28;22236;-70
2024/03/23 10:11:15;;;;;;;2.00;1.77;;;22.40;73.90;;;;;;5006098;28;20907;-72
2024/03/23 10:13:42;;;;;;;4.23;1.70;;;22.50;74.30;;;;;;5009199;28;20451;-72
2024/03/23 10:16:08;;;;;;;4.47;2.00;;;22.60;74.50;;;;;;5004041;28;20482;-72
2024/03/23 10:18:38;;;;;;;3.30;2.00;;;22.70;74.50;;;;;;5005048;28;20454;-68
2024/03/23 10:21:08;;;;;;;1.90;1.50;;;22.70;74.50;;;;;;5005696;28;20215;-72
2024/03/23 10:23:37;;;;;;;1.93;1.50;;;22.70;74.70;;;;;;5004809;28;20489;-75
2024/03/23 10:26:21;;;;;;;1.90;1.33;;;22.70;74.90;;;;;;5004819;28;20470;-69
2024/03/23 10:28:56;;;;;;;2.00;1.40;;;22.80;75.10;;;;;;5005256;28;20463;-72
2024/03/23 10:31:22;;;;;;;4.00;1.90;;;22.80;75.00;;;;;;5006619;28;20498;-74
2024/03/23 10:33:49;;;;;;;1.67;1.50;;;22.90;75.10;;;;;;5001299;28;20654;-69
2024/03/23 10:36:15;;;;;;;2.07;1.57;;;22.90;75.10;;;;;;4999476;28;20227;-69
2024/03/23 10:38:45;;;;;;;2.50;2.13;;;22.90;74.70;;;;;;5006809;28;20442;-74
2024/03/23 10:41:11;;;;;;;3.50;1.63;;;23.00;75.10;;;;;;5003932;28;20590;-69
2024/03/23 10:43:39;;;;;;;2.40;1.60;;;23.00;75.00;;;;;;5000309;28;20458;-69
2024/03/23 10:46:05;;;;;;;3.23;1.73;;;23.10;75.00;;;;;;5007648;28;20467;-69
2024/03/23 10:48:32;;;;;;;1.80;1.43;;;23.10;74.90;;;;;;5004333;28;20466;-72
2024/03/23 10:50:59;;;;;;;2.20;1.30;;;23.10;75.00;;;;;;5009091;28;20926;-70
2024/03/23 10:53:27;;;;;;;2.00;1.50;;;23.10;74.80;;;;;;5008274;28;20507;-70
2024/03/23 10:55:55;;;;;;;2.57;1.70;;;23.10;74.70;;;;;;5011650;28;20482;-71
2024/03/23 10:58:25;;;;;;;2.03;1.60;;;23.20;74.80;;;;;;5012327;28;20454;-71
2024/03/23 11:00:51;;;;;;;3.67;1.97;;;23.20;74.80;;;;;;5009603;28;21214;-72
2024/03/23 11:03:37;;;;;;;2.20;1.40;;;23.20;74.80;;;;;;5009002;28;20461;-70
2024/03/23 11:06:04;;;;;;;1.27;1.13;;;23.20;74.70;;;;;;5012269;28;21351;-73
2024/03/23 11:08:32;;;;;;;1.97;1.70;;;23.20;74.70;;;;;;4995473;28;20454;-71
2024/03/23 11:11:18;;;;;;;2.03;1.40;;;23.20;74.60;;;;;;5012248;28;20843;-73
2024/03/23 11:13:45;;;;;;;3.03;1.80;;;23.20;74.30;;;;;;5012516;28;20465;-73
2024/03/23 11:16:15;;;;;;;2.00;1.63;;;23.20;74.20;;;;;;5008218;28;20478;-74
2024/03/23 11:18:43;;;;;;;2.60;1.43;;;23.30;74.40;;;;;;5009708;28;20586;-68
2024/03/23 11:21:09;;;;;;;2.70;1.30;;;23.30;74.30;;;;;;5006884;28;20537;-69
2024/03/23 11:23:36;;;;;;;1.73;1.60;;;23.30;74.20;;;;;;5004709;28;20550;-72
2024/03/23 11:26:02;;;;;;;2.10;1.43;;;23.30;74.10;;;;;;5003017;28;20458;-71
2024/03/23 11:28:31;;;;;;;2.83;2.00;;;23.30;74.10;;;;;;5006332;28;20458;-73
2024/03/23 11:30:57;;;;;;;1.67;1.57;;;23.30;74.00;;;;;;5007493;28;20465;-70
2024/03/23 11:33:24;;;;;;;1.67;1.47;;;23.30;74.00;;;;;;5007297;28;21486;-77
2024/03/23 11:35:51;;;;;;;1.63;1.20;;;23.30;74.30;;;;;;5006051;28;20274;-70
2024/03/23 11:38:18;;;;;;;2.20;1.47;;;23.40;74.30;;;;;;5004271;28;20459;-72
2024/03/23 11:40:45;;;;;;;2.03;1.43;;;23.40;74.20;;;;;;5005794;28;20477;-69
2024/03/23 11:43:13;;;;;;;1.47;1.37;;;23.40;74.30;;;;;;5008034;28;20447;-72
2024/03/23 11:45:43;;;;;;;1.90;1.20;;;23.40;74.30;;;;;;5007669;28;21733;-69
2024/03/23 11:48:11;;;;;;;2.70;1.50;;;23.40;74.30;;;;;;5005818;28;20458;-72
2024/03/23 11:50:40;;;;;;;2.17;1.70;;;23.40;74.30;;;;;;5008118;28;20450;-71
2024/03/23 11:53:15;;;;;;;2.10;1.50;;;23.40;74.40;;;;;;5008343;28;20482;-71
2024/03/23 11:55:43;;;;;;;2.17;1.40;;;23.40;74.30;;;;;;5003279;28;20465;-70
2024/03/23 11:58:10;;;;;;;1.57;1.43;;;23.40;74.30;;;;;;5009440;28;20905;-72
2024/03/23 12:00:35;;;;;;;1.47;1.10;;;23.40;74.40;;;;;;5005807;28;20478;-70
2024/03/23 12:03:04;;;;;;;1.90;1.70;;;23.40;74.20;;;;;;5001860;28;20839;-72
2024/03/23 12:05:30;;;;;;;2.17;1.43;;;23.40;74.30;;;;;;5006244;28;20786;-73
2024/03/23 12:08:17;;;;;;;1.97;1.13;;;23.40;74.30;;;;;;5008138;28;20465;-72
2024/03/23 12:10:45;;;;;;;2.13;1.60;;;23.40;74.40;;;;;;5015716;28;20473;-73
2024/03/23 12:13:11;;;;;;;1.63;1.30;;;23.40;74.40;;;;;;5016470;28;20474;-73
2024/03/23 12:15:37;;;;;;;1.77;1.33;;;23.40;74.40;;;;;;5018042;28;21010;-71
2024/03/23 12:18:11;;;;;;;2.90;1.80;;;23.40;74.50;;;;;;5012960;28;20470;-72
2024/03/23 12:20:38;;;;;;;1.30;1.13;;;23.40;74.50;;;;;;5015331;28;20943;-71
2024/03/23 12:23:12;;;;;;;1.87;1.37;;;23.50;74.50;;;;;;5011548;28;20454;-74
2024/03/23 12:25:38;;;;;;;1.40;1.00;;;23.50;74.50;;;;;;5011502;28;20493;-72
2024/03/23 12:28:07;;;;;;;4.03;1.20;;;23.50;74.50;;;;;;5011489;28;20455;-70
2024/03/23 12:30:34;;;;;;;2.00;1.40;;;23.50;74.50;;;;;;5016487;28;20459;-70
2024/03/23 12:33:00;;;;;;;2.03;1.47;;;23.50;74.50;;;;;;5010668;28;20446;-69
2024/03/23 12:35:27;;;;;;;1.73;1.63;;;23.50;74.50;;;;;;5008920;28;20494;-73
2024/03/23 12:37:54;;;;;;;1.67;1.20;;;23.50;74.50;;;;;;5005059;28;20788;-73
2024/03/23 12:40:20;;;;;;;1.50;1.20;;;23.50;74.40;;;;;;5010125;28;20461;-73
2024/03/23 12:42:46;;;;;;;1.40;1.27;;;23.50;74.40;;;;;;5011282;28;20493;-72
2024/03/23 12:45:12;;;;;;;1.50;1.17;;;23.50;74.40;;;;;;5009687;28;20211;-76
2024/03/23 12:47:39;;;;;;;1.60;1.50;;;23.50;74.30;;;;;;5010876;28;20463;-73